createdAt,value
2018-08-25T00:02:12.780Z,14.70
2018-08-25T00:04:40.381Z,14.70
2018-08-25T00:07:07.864Z,14.70
2018-08-25T00:09:35.392Z,14.60
2018-08-25T00:12:02.890Z,14.60
2018-08-25T00:14:30.290Z,14.50
2018-08-25T00:16:57.750Z,14.40
2018-08-25T00:19:25.163Z,14.50
2018-08-25T00:21:52.698Z,14.40
2018-08-25T00:24:20.126Z,14.40
2018-08-25T00:26:47.577Z,14.30
2018-08-25T00:29:15.038Z,14.20
2018-08-25T00:31:42.494Z,14.20
2018-08-25T00:34:09.875Z,14.20
2018-08-25T00:36:37.286Z,14.20
2018-08-25T00:39:07.273Z,14.30
2018-08-25T00:41:34.758Z,14.20
2018-08-25T00:44:02.215Z,14.20
2018-08-25T00:46:29.701Z,14.20
2018-08-25T00:48:57.229Z,14.20
2018-08-25T00:51:24.678Z,14.30
2018-08-25T00:53:52.115Z,14.20
2018-08-25T00:56:19.584Z,14.10
2018-08-25T00:58:47.116Z,14.00
2018-08-25T01:01:14.561Z,13.90
2018-08-25T01:03:41.999Z,13.90
2018-08-25T01:06:09.416Z,13.90
2018-08-25T01:08:37.438Z,13.90
2018-08-25T01:11:05.227Z,13.70
2018-08-25T01:13:32.747Z,13.60
2018-08-25T01:16:00.187Z,13.90
2018-08-25T01:18:27.627Z,14.00
2018-08-25T01:20:55.186Z,13.90
2018-08-25T01:23:22.622Z,13.90
2018-08-25T01:25:50.068Z,13.90
2018-08-25T01:28:17.587Z,13.80
2018-08-25T01:30:45.044Z,13.80
2018-08-25T01:33:12.426Z,13.80
2018-08-25T01:35:39.913Z,13.70
2018-08-25T01:38:07.651Z,13.50
2018-08-25T01:40:35.053Z,13.50
2018-08-25T01:43:02.597Z,13.40
2018-08-25T01:45:30.019Z,13.50
2018-08-25T01:47:57.457Z,13.40
2018-08-25T01:50:24.877Z,13.40
2018-08-25T01:52:52.306Z,13.30
2018-08-25T01:55:19.751Z,13.40
2018-08-25T01:57:47.255Z,13.50
2018-08-25T02:00:14.829Z,13.40
2018-08-25T02:02:42.379Z,13.30
2018-08-25T02:05:09.895Z,13.30
2018-08-25T02:07:37.361Z,13.30
2018-08-25T02:10:05.117Z,13.20
2018-08-25T02:12:32.595Z,13.20
2018-08-25T02:15:00.028Z,13.40
2018-08-25T02:17:27.671Z,13.40
2018-08-25T02:19:55.111Z,13.40
2018-08-25T02:22:22.533Z,13.50
2018-08-25T02:24:49.996Z,13.40
2018-08-25T02:27:17.547Z,13.40
2018-08-25T02:29:45.021Z,13.40
2018-08-25T02:32:12.492Z,13.30
2018-08-25T02:34:39.939Z,13.40
2018-08-25T02:37:07.350Z,13.40
2018-08-25T02:39:34.781Z,13.30
2018-08-25T02:42:02.232Z,13.30
2018-08-25T02:44:29.657Z,13.30
2018-08-25T02:46:57.104Z,13.30
2018-08-25T02:49:24.543Z,13.20
2018-08-25T02:51:51.994Z,13.20
2018-08-25T02:54:19.438Z,13.20
2018-08-25T02:56:46.886Z,13.30
2018-08-25T02:59:14.276Z,13.30
2018-08-25T03:01:41.749Z,13.20
2018-08-25T03:04:09.239Z,13.20
2018-08-25T03:06:36.674Z,13.20
2018-08-25T03:09:07.010Z,13.20
2018-08-25T03:11:34.452Z,13.10
2018-08-25T03:14:01.915Z,13.00
2018-08-25T03:16:29.351Z,13.10
2018-08-25T03:18:56.732Z,13.00
2018-08-25T03:21:24.156Z,12.90
2018-08-25T03:23:51.600Z,13.00
2018-08-25T03:26:19.028Z,13.00
2018-08-25T03:28:46.467Z,13.20
2018-08-25T03:31:13.859Z,13.20
2018-08-25T03:33:41.256Z,13.20
2018-08-25T03:36:08.672Z,13.20
2018-08-25T03:38:36.052Z,13.30
2018-08-25T03:41:03.487Z,13.20
2018-08-25T03:43:30.934Z,13.20
2018-08-25T03:45:58.368Z,13.10
2018-08-25T03:48:26.080Z,13.10
2018-08-25T03:50:53.515Z,13.00
2018-08-25T03:53:20.918Z,13.10
2018-08-25T03:55:51.411Z,13.10
2018-08-25T03:58:18.777Z,13.10
2018-08-25T04:00:46.480Z,13.10
2018-08-25T04:03:13.879Z,13.00
2018-08-25T04:05:41.319Z,12.90
2018-08-25T04:08:08.724Z,12.90
2018-08-25T04:10:36.264Z,12.90
2018-08-25T04:13:03.688Z,12.90
2018-08-25T04:15:31.096Z,13.00
2018-08-25T04:17:58.551Z,12.90
2018-08-25T04:20:25.936Z,13.00
2018-08-25T04:22:53.336Z,12.90
2018-08-25T04:25:20.811Z,12.90
2018-08-25T04:27:48.277Z,12.90
2018-08-25T04:30:15.676Z,13.00
2018-08-25T04:32:43.064Z,13.00
2018-08-25T04:35:10.503Z,13.00
2018-08-25T04:37:37.936Z,12.90
2018-08-25T04:40:05.438Z,12.80
2018-08-25T04:42:32.891Z,12.80
2018-08-25T04:45:00.311Z,12.90
2018-08-25T04:47:27.699Z,12.80
2018-08-25T04:49:55.119Z,13.00
2018-08-25T04:52:22.538Z,12.90
2018-08-25T04:54:49.987Z,13.00
2018-08-25T04:57:17.418Z,13.00
2018-08-25T04:59:44.865Z,12.90
2018-08-25T05:02:12.264Z,12.90
2018-08-25T05:04:39.793Z,13.00
2018-08-25T05:07:07.214Z,12.90
2018-08-25T05:09:34.606Z,12.90
2018-08-25T05:12:02.059Z,12.80
2018-08-25T05:14:29.509Z,12.90
2018-08-25T05:16:56.967Z,12.90
2018-08-25T05:19:24.359Z,12.90
2018-08-25T05:21:51.759Z,12.80
2018-08-25T05:24:19.225Z,12.90
2018-08-25T05:26:46.619Z,13.00
2018-08-25T05:29:13.998Z,13.10
2018-08-25T05:31:41.440Z,13.00
2018-08-25T05:34:08.828Z,13.20
2018-08-25T05:36:36.262Z,13.20
2018-08-25T05:39:05.730Z,13.30
2018-08-25T05:41:33.172Z,13.30
2018-08-25T05:44:00.626Z,13.40
2018-08-25T05:46:28.011Z,13.40
2018-08-25T05:48:55.545Z,13.40
2018-08-25T05:51:22.991Z,13.50
2018-08-25T05:53:50.395Z,13.60
2018-08-25T05:56:17.831Z,13.80
2018-08-25T05:58:45.220Z,14.00
2018-08-25T06:01:12.743Z,14.10
2018-08-25T06:03:40.172Z,14.20
2018-08-25T06:06:07.740Z,14.40
2018-08-25T06:08:35.401Z,14.60
2018-08-25T06:11:02.831Z,14.70
2018-08-25T06:13:30.312Z,14.80
2018-08-25T06:15:57.712Z,14.80
2018-08-25T06:18:25.139Z,15.00
2018-08-25T06:20:52.589Z,15.20
2018-08-25T06:23:19.972Z,15.20
2018-08-25T06:25:47.410Z,15.30
2018-08-25T06:28:14.791Z,15.50
2018-08-25T06:30:42.228Z,15.50
2018-08-25T06:33:09.625Z,15.40
2018-08-25T06:35:37.049Z,15.50
2018-08-25T06:38:04.562Z,15.50
2018-08-25T06:40:32.002Z,15.60
2018-08-25T06:42:59.459Z,15.80
2018-08-25T06:45:26.892Z,15.70
2018-08-25T06:47:54.387Z,16.00
2018-08-25T06:50:21.854Z,16.10
2018-08-25T06:52:49.315Z,16.10
2018-08-25T06:55:16.709Z,16.30
2018-08-25T06:57:44.158Z,16.30
2018-08-25T07:00:12.062Z,16.40
2018-08-25T07:02:39.490Z,16.60
2018-08-25T07:05:06.934Z,16.80
2018-08-25T07:07:34.787Z,16.90
2018-08-25T07:10:02.249Z,16.80
2018-08-25T07:12:29.635Z,17.00
2018-08-25T07:14:57.050Z,17.00
2018-08-25T07:17:24.487Z,17.00
2018-08-25T07:19:51.915Z,16.90
2018-08-25T07:22:19.296Z,16.90
2018-08-25T07:24:46.725Z,16.90
2018-08-25T07:27:14.177Z,16.80
2018-08-25T07:29:41.612Z,16.90
2018-08-25T07:32:09.056Z,16.90
2018-08-25T07:34:36.465Z,16.90
2018-08-25T07:37:04.045Z,17.00
2018-08-25T07:39:31.482Z,16.90
2018-08-25T07:41:58.887Z,17.10
2018-08-25T07:44:26.275Z,17.00
2018-08-25T07:46:53.710Z,17.00
2018-08-25T07:49:21.728Z,17.10
2018-08-25T07:51:49.131Z,17.10
2018-08-25T07:54:16.526Z,17.20
2018-08-25T07:56:43.967Z,17.10
2018-08-25T07:59:11.674Z,16.90
2018-08-25T08:01:39.177Z,16.80
2018-08-25T08:04:06.589Z,16.80
2018-08-25T08:06:33.994Z,16.70
2018-08-25T08:09:01.747Z,16.70
2018-08-25T08:11:29.433Z,16.90
2018-08-25T08:13:57.039Z,17.20
2018-08-25T08:16:24.568Z,17.10
2018-08-25T08:18:51.996Z,17.40
2018-08-25T08:21:19.403Z,17.80
2018-08-25T08:23:46.858Z,17.80
2018-08-25T08:26:14.278Z,17.70
2018-08-25T08:28:41.686Z,17.80
2018-08-25T08:31:09.137Z,18.00
2018-08-25T08:33:36.590Z,18.30
2018-08-25T08:36:04.216Z,18.10
2018-08-25T08:38:34.207Z,17.70
2018-08-25T08:41:01.823Z,17.70
2018-08-25T08:43:29.320Z,17.70
2018-08-25T08:45:56.796Z,17.60
2018-08-25T08:48:24.203Z,17.40
2018-08-25T08:50:51.645Z,17.60
2018-08-25T08:53:19.033Z,17.60
2018-08-25T08:55:46.514Z,17.70
2018-08-25T08:58:13.944Z,17.50
2018-08-25T09:00:41.364Z,17.60
2018-08-25T09:03:08.781Z,17.60
2018-08-25T09:05:36.232Z,17.60
2018-08-25T09:08:03.646Z,17.50
2018-08-25T09:10:31.091Z,17.60
2018-08-25T09:12:58.612Z,17.70
2018-08-25T09:15:26.017Z,17.70
2018-08-25T09:17:53.463Z,17.90
2018-08-25T09:20:20.869Z,18.00
2018-08-25T09:22:48.287Z,18.10
2018-08-25T09:25:15.728Z,17.90
2018-08-25T09:27:43.145Z,17.80
2018-08-25T09:30:10.618Z,17.90
2018-08-25T09:32:38.013Z,18.20
2018-08-25T09:35:05.483Z,18.30
2018-08-25T09:37:33.075Z,18.50
2018-08-25T09:40:00.530Z,18.70
2018-08-25T09:42:27.947Z,18.40
2018-08-25T09:44:55.375Z,18.60
2018-08-25T09:47:22.773Z,18.60
2018-08-25T09:49:50.268Z,18.30
2018-08-25T09:52:17.990Z,18.20
2018-08-25T09:54:45.454Z,18.20
2018-08-25T09:57:12.907Z,18.30
2018-08-25T09:59:40.298Z,18.60
2018-08-25T10:02:07.991Z,18.90
2018-08-25T10:04:35.382Z,18.70
2018-08-25T10:07:02.978Z,18.70
2018-08-25T10:09:30.373Z,18.60
2018-08-25T10:11:57.859Z,18.50
2018-08-25T10:14:25.248Z,18.50
2018-08-25T10:16:52.779Z,18.40
2018-08-25T10:19:20.108Z,18.10
2018-08-25T10:21:47.550Z,17.50
2018-08-25T10:24:15.133Z,16.80
2018-08-25T10:26:42.570Z,16.10
2018-08-25T10:29:10.174Z,15.90
2018-08-25T10:31:37.487Z,15.20
2018-08-25T10:34:04.967Z,15.00
2018-08-25T10:36:32.358Z,14.90
2018-08-25T10:39:00.163Z,14.70
2018-08-25T10:41:27.745Z,14.50
2018-08-25T10:43:55.183Z,14.30
2018-08-25T10:46:22.609Z,14.30
2018-08-25T10:48:50.064Z,14.40
2018-08-25T10:51:17.452Z,14.50
2018-08-25T10:53:44.916Z,14.70
2018-08-25T10:56:12.304Z,15.00
2018-08-25T10:58:39.763Z,15.40
2018-08-25T11:01:07.214Z,15.50
2018-08-25T11:03:34.627Z,15.60
2018-08-25T11:06:02.039Z,15.40
2018-08-25T11:08:29.435Z,15.40
2018-08-25T11:10:56.872Z,16.00
2018-08-25T11:13:24.304Z,16.10
2018-08-25T11:15:51.688Z,16.60
2018-08-25T11:18:19.343Z,16.90
2018-08-25T11:20:46.767Z,16.90
2018-08-25T11:23:14.191Z,17.00
2018-08-25T11:25:41.861Z,16.90
2018-08-25T11:28:09.468Z,16.90
2018-08-25T11:30:36.948Z,17.30
2018-08-25T11:33:04.443Z,17.20
2018-08-25T11:35:31.918Z,17.10
2018-08-25T11:37:59.319Z,17.30
2018-08-25T11:40:26.774Z,17.40
2018-08-25T11:42:54.155Z,17.40
2018-08-25T11:45:22.379Z,17.30
2018-08-25T11:47:49.776Z,17.30
2018-08-25T11:50:17.271Z,17.40
2018-08-25T11:52:44.655Z,17.50
2018-08-25T11:55:12.092Z,17.60
2018-08-25T11:57:39.547Z,17.80
2018-08-25T12:00:08.272Z,17.90
2018-08-25T12:02:35.909Z,17.60
2018-08-25T12:05:03.443Z,17.60
2018-08-25T12:07:30.877Z,17.60
2018-08-25T12:09:58.277Z,17.70
2018-08-25T12:12:25.734Z,17.80
2018-08-25T12:14:53.166Z,17.70
2018-08-25T12:17:20.558Z,17.60
2018-08-25T12:19:47.978Z,17.60
2018-08-25T12:22:15.429Z,17.60
2018-08-25T12:24:42.879Z,17.40
2018-08-25T12:27:10.330Z,17.50
2018-08-25T12:29:37.740Z,17.50
2018-08-25T12:32:05.220Z,17.40
2018-08-25T12:34:32.604Z,17.70
2018-08-25T12:37:00.060Z,17.70
2018-08-25T12:39:27.503Z,17.70
2018-08-25T12:41:54.935Z,17.60
2018-08-25T12:44:22.379Z,17.70
2018-08-25T12:46:49.894Z,18.00
2018-08-25T12:49:17.343Z,18.30
2018-08-25T12:51:44.806Z,18.30
2018-08-25T12:54:12.475Z,18.50
2018-08-25T12:56:39.942Z,18.40
2018-08-25T12:59:07.339Z,18.30
2018-08-25T13:01:34.797Z,17.40
2018-08-25T13:04:02.254Z,17.30
2018-08-25T13:06:29.663Z,16.80
2018-08-25T13:08:57.083Z,16.40
2018-08-25T13:11:24.520Z,16.50
2018-08-25T13:13:51.897Z,16.40
2018-08-25T13:16:19.352Z,16.00
2018-08-25T13:18:46.773Z,15.60
2018-08-25T13:21:14.196Z,15.20
2018-08-25T13:23:41.642Z,15.30
2018-08-25T13:26:09.043Z,15.60
2018-08-25T13:28:36.468Z,15.70
2018-08-25T13:31:04.227Z,15.60
2018-08-25T13:33:31.595Z,15.80
2018-08-25T13:35:58.999Z,16.00
2018-08-25T13:38:26.451Z,16.20
2018-08-25T13:40:53.895Z,16.90
2018-08-25T13:43:21.393Z,17.40
2018-08-25T13:45:48.829Z,17.60
2018-08-25T13:48:16.263Z,18.00
2018-08-25T13:50:43.661Z,18.20
2018-08-25T13:53:11.160Z,18.90
2018-08-25T13:55:38.576Z,18.70
2018-08-25T13:58:06.093Z,17.60
2018-08-25T14:00:33.493Z,17.00
2018-08-25T14:03:00.968Z,16.30
2018-08-25T14:05:28.403Z,16.40
2018-08-25T14:07:55.793Z,16.30
2018-08-25T14:10:23.248Z,16.10
2018-08-25T14:12:50.640Z,15.60
2018-08-25T14:15:18.109Z,15.50
2018-08-25T14:17:45.681Z,15.40
2018-08-25T14:20:13.088Z,15.10
2018-08-25T14:22:40.522Z,14.60
2018-08-25T14:25:08.050Z,14.00
2018-08-25T14:27:35.735Z,13.90
2018-08-25T14:30:03.679Z,13.80
2018-08-25T14:32:31.118Z,14.10
2018-08-25T14:34:58.527Z,13.80
2018-08-25T14:37:25.962Z,13.60
2018-08-25T14:39:53.652Z,13.70
2018-08-25T14:42:21.601Z,13.90
2018-08-25T14:44:49.038Z,13.90
2018-08-25T14:47:16.496Z,13.90
2018-08-25T14:49:43.887Z,14.20
2018-08-25T14:52:11.330Z,14.40
2018-08-25T14:54:38.786Z,15.00
2018-08-25T14:57:06.213Z,15.60
2018-08-25T14:59:33.771Z,16.50
2018-08-25T15:02:01.147Z,17.90
2018-08-25T15:04:28.567Z,18.90
2018-08-25T15:06:56.024Z,18.90
2018-08-25T15:09:23.402Z,18.90
2018-08-25T15:11:50.950Z,18.10
2018-08-25T15:14:18.371Z,17.30
2018-08-25T15:16:45.760Z,16.80
2018-08-25T15:19:13.187Z,16.10
2018-08-25T15:21:40.602Z,15.70
2018-08-25T15:24:08.046Z,15.50
2018-08-25T15:26:35.497Z,15.50
2018-08-25T15:29:02.941Z,16.30
2018-08-25T15:31:30.420Z,16.30
2018-08-25T15:33:57.827Z,16.50
2018-08-25T15:36:25.312Z,16.00
2018-08-25T15:38:52.775Z,16.10
2018-08-25T15:41:20.148Z,15.80
2018-08-25T15:43:47.630Z,15.50
2018-08-25T15:46:15.135Z,16.30
2018-08-25T15:48:42.555Z,18.00
2018-08-25T15:51:09.976Z,19.10
2018-08-25T15:53:37.605Z,19.70
2018-08-25T15:56:05.082Z,20.60
2018-08-25T15:58:32.469Z,20.10
2018-08-25T16:00:59.976Z,20.10
2018-08-25T16:03:27.467Z,21.20
2018-08-25T16:05:55.022Z,18.40
2018-08-25T16:08:22.444Z,16.30
2018-08-25T16:10:49.896Z,16.20
2018-08-25T16:13:17.339Z,16.50
2018-08-25T16:15:44.787Z,16.70
2018-08-25T16:18:12.186Z,17.80
2018-08-25T16:20:39.646Z,18.90
2018-08-25T16:23:07.059Z,18.90
2018-08-25T16:25:34.450Z,19.60
2018-08-25T16:28:01.887Z,19.90
2018-08-25T16:30:29.321Z,19.10
2018-08-25T16:32:56.750Z,19.00
2018-08-25T16:35:24.134Z,19.70
2018-08-25T16:37:51.584Z,20.10
2018-08-25T16:40:19.025Z,20.10
2018-08-25T16:42:46.414Z,19.90
2018-08-25T16:45:13.879Z,20.00
2018-08-25T16:47:41.416Z,20.80
2018-08-25T16:50:08.898Z,21.00
2018-08-25T16:52:36.353Z,21.60
2018-08-25T16:55:03.848Z,21.70
2018-08-25T16:57:31.257Z,21.40
2018-08-25T16:59:58.667Z,21.50
2018-08-25T17:02:26.091Z,20.10
2018-08-25T17:04:53.945Z,19.90
2018-08-25T17:07:21.376Z,20.20
2018-08-25T17:09:48.807Z,20.30
2018-08-25T17:12:16.186Z,19.80
2018-08-25T17:14:43.635Z,19.10
2018-08-25T17:17:11.108Z,18.50
2018-08-25T17:19:38.579Z,17.40
2018-08-25T17:22:06.006Z,17.20
2018-08-25T17:24:33.457Z,17.80
2018-08-25T17:27:00.912Z,17.60
2018-08-25T17:29:28.361Z,17.30
2018-08-25T17:31:55.764Z,17.40
2018-08-25T17:34:23.151Z,17.20
2018-08-25T17:36:50.579Z,17.10
2018-08-25T17:39:17.980Z,17.40
2018-08-25T17:41:45.413Z,18.30
2018-08-25T17:44:12.818Z,18.10
2018-08-25T17:46:40.209Z,17.20
2018-08-25T17:49:07.667Z,17.30
2018-08-25T17:51:35.111Z,17.80
2018-08-25T17:54:02.519Z,17.90
2018-08-25T17:56:29.923Z,18.30
2018-08-25T17:58:57.624Z,17.80
2018-08-25T18:01:25.052Z,17.50
2018-08-25T18:03:52.674Z,16.80
2018-08-25T18:06:20.866Z,16.40
2018-08-25T18:08:48.322Z,16.20
2018-08-25T18:11:15.850Z,16.40
2018-08-25T18:13:43.265Z,16.30
2018-08-25T18:16:10.693Z,16.40
2018-08-25T18:18:38.119Z,16.00
2018-08-25T18:21:05.582Z,15.50
2018-08-25T18:23:33.114Z,15.60
2018-08-25T18:26:00.482Z,15.70
2018-08-25T18:28:27.925Z,15.40
2018-08-25T18:30:55.430Z,15.40
2018-08-25T18:33:22.913Z,15.40
2018-08-25T18:35:50.308Z,15.30
2018-08-25T18:38:17.786Z,14.90
2018-08-25T18:40:45.173Z,15.10
2018-08-25T18:43:12.677Z,15.10
2018-08-25T18:45:40.053Z,15.00
2018-08-25T18:48:07.543Z,14.80
2018-08-25T18:50:37.557Z,15.00
2018-08-25T18:53:05.008Z,14.90
2018-08-25T18:55:32.452Z,15.10
2018-08-25T18:57:59.845Z,15.20
2018-08-25T19:00:28.311Z,15.00
2018-08-25T19:02:55.746Z,14.80
2018-08-25T19:05:23.187Z,14.80
2018-08-25T19:07:50.583Z,15.10
2018-08-25T19:10:18.040Z,15.00
2018-08-25T19:12:45.427Z,14.90
2018-08-25T19:15:12.934Z,14.70
2018-08-25T19:17:40.334Z,14.70
2018-08-25T19:20:07.835Z,14.80
2018-08-25T19:22:35.388Z,14.90
2018-08-25T19:25:02.831Z,14.80
2018-08-25T19:27:30.276Z,14.70
2018-08-25T19:29:57.679Z,14.80
2018-08-25T19:32:25.119Z,14.70
2018-08-25T19:34:52.550Z,14.70
2018-08-25T19:37:19.967Z,14.60
2018-08-25T19:39:47.361Z,14.40
2018-08-25T19:42:14.798Z,14.40
2018-08-25T19:44:42.297Z,14.50
2018-08-25T19:47:09.777Z,14.40
2018-08-25T19:49:37.206Z,14.30
2018-08-25T19:52:05.181Z,14.20
2018-08-25T19:54:32.774Z,14.10
2018-08-25T19:57:00.295Z,14.20
2018-08-25T19:59:27.835Z,14.00
2018-08-25T20:01:55.248Z,14.00
2018-08-25T20:04:22.723Z,13.70
2018-08-25T20:06:50.160Z,13.70
2018-08-25T20:09:17.677Z,13.50
2018-08-25T20:11:45.103Z,13.50
2018-08-25T20:14:12.478Z,13.60
2018-08-25T20:16:39.952Z,13.70
2018-08-25T20:19:07.370Z,13.70
2018-08-25T20:21:34.821Z,13.60
2018-08-25T20:24:02.218Z,13.70
2018-08-25T20:26:29.652Z,13.80
2018-08-25T20:28:57.043Z,13.80
2018-08-25T20:31:24.615Z,13.80
2018-08-25T20:33:52.039Z,13.70
2018-08-25T20:36:19.480Z,13.60
2018-08-25T20:38:46.948Z,13.50
2018-08-25T20:41:14.451Z,13.50
2018-08-25T20:43:41.931Z,13.40
2018-08-25T20:46:09.527Z,13.20
2018-08-25T20:48:36.920Z,13.30
2018-08-25T20:51:04.366Z,13.30
2018-08-25T20:53:31.883Z,13.40
2018-08-25T20:55:59.249Z,13.30
2018-08-25T20:58:26.682Z,13.10
2018-08-25T21:00:54.108Z,13.00
2018-08-25T21:03:21.557Z,13.10
2018-08-25T21:05:48.945Z,13.20
2018-08-25T21:08:16.429Z,13.40
2018-08-25T21:10:43.819Z,13.30
2018-08-25T21:13:11.345Z,12.90
2018-08-25T21:15:38.734Z,13.20
2018-08-25T21:18:06.255Z,13.10
2018-08-25T21:20:36.331Z,13.00
2018-08-25T21:23:13.548Z,13.00
2018-08-25T21:25:41.008Z,12.90
2018-08-25T21:28:08.451Z,13.00
2018-08-25T21:30:35.863Z,13.10
2018-08-25T21:33:03.408Z,12.90
2018-08-25T21:35:30.860Z,12.60
2018-08-25T21:37:58.261Z,12.60
2018-08-25T21:40:25.738Z,13.00
2018-08-25T21:42:53.147Z,13.10
2018-08-25T21:45:20.667Z,13.00
2018-08-25T21:47:48.077Z,12.80
2018-08-25T21:50:15.603Z,12.90
2018-08-25T21:52:43.037Z,12.70
2018-08-25T21:55:10.422Z,13.00
2018-08-25T21:57:37.844Z,12.90
2018-08-25T22:00:09.866Z,12.80
2018-08-25T22:02:37.320Z,12.70
2018-08-25T22:05:04.911Z,12.50
2018-08-25T22:07:32.343Z,12.60
2018-08-25T22:09:59.735Z,12.40
2018-08-25T22:12:27.169Z,12.50
2018-08-25T22:14:54.575Z,12.70
2018-08-25T22:17:22.105Z,12.90
2018-08-25T22:19:49.505Z,12.70
2018-08-25T22:22:16.976Z,12.70
2018-08-25T22:24:44.372Z,12.70
2018-08-25T22:27:11.832Z,12.70
2018-08-25T22:29:39.286Z,12.70
2018-08-25T22:32:06.707Z,12.60
2018-08-25T22:34:34.125Z,12.60
2018-08-25T22:37:01.521Z,12.80
2018-08-25T22:39:28.956Z,12.80
2018-08-25T22:41:56.369Z,12.50
2018-08-25T22:44:23.800Z,12.40
2018-08-25T22:46:51.278Z,12.10
2018-08-25T22:49:18.663Z,11.90
2018-08-25T22:51:46.105Z,12.10
2018-08-25T22:54:13.499Z,12.20
2018-08-25T22:56:40.947Z,12.30
2018-08-25T22:59:08.915Z,12.20
2018-08-25T23:01:36.303Z,12.10
2018-08-25T23:04:03.882Z,12.10
2018-08-25T23:06:31.334Z,12.10
2018-08-25T23:08:58.854Z,12.20
2018-08-25T23:11:26.353Z,12.10
2018-08-25T23:13:53.794Z,12.30
2018-08-25T23:16:21.220Z,12.40
2018-08-25T23:18:48.647Z,12.40
2018-08-25T23:21:16.074Z,12.40
2018-08-25T23:23:43.495Z,12.10
2018-08-25T23:26:10.898Z,12.20
2018-08-25T23:28:38.399Z,12.30
2018-08-25T23:31:05.832Z,12.30
2018-08-25T23:33:33.246Z,12.30
2018-08-25T23:36:00.679Z,12.20
2018-08-25T23:38:28.058Z,12.20
2018-08-25T23:40:55.558Z,12.10
2018-08-25T23:43:23.082Z,12.10
2018-08-25T23:45:50.530Z,12.10
2018-08-25T23:48:17.950Z,12.00
2018-08-25T23:50:45.408Z,12.00
2018-08-25T23:53:12.799Z,12.00
2018-08-25T23:55:40.266Z,11.90
2018-08-25T23:58:07.677Z,11.70
